createdAt,value
2023-05-06T00:02:09.660Z,4.70
2023-05-06T00:04:37.137Z,4.20
2023-05-06T00:07:03.764Z,4.30
2023-05-06T00:09:30.543Z,3.93
2023-05-06T00:11:57.216Z,4.10
2023-05-06T00:14:23.936Z,4.20
2023-05-06T00:16:51.148Z,4.60
2023-05-06T00:19:17.723Z,5.60
2023-05-06T00:21:44.399Z,3.83
2023-05-06T00:24:11.460Z,4.30
2023-05-06T00:26:38.041Z,4.07
2023-05-06T00:29:04.736Z,4.10
2023-05-06T00:31:31.403Z,4.17
2023-05-06T00:33:57.983Z,3.77
2023-05-06T00:36:24.567Z,4.33
2023-05-06T00:38:51.133Z,4.67
2023-05-06T00:41:17.753Z,4.27
2023-05-06T00:43:44.440Z,4.23
2023-05-06T00:46:11.654Z,4.10
2023-05-06T00:48:38.895Z,3.97
2023-05-06T00:51:05.602Z,3.70
2023-05-06T00:53:32.990Z,5.07
2023-05-06T00:56:00.656Z,4.53
2023-05-06T00:58:27.231Z,3.63
2023-05-06T01:00:55.364Z,3.50
2023-05-06T01:03:22.440Z,4.57
2023-05-06T01:06:24.634Z,3.97
2023-05-06T01:09:14.606Z,4.10
2023-05-06T01:11:59.686Z,4.00
2023-05-06T01:14:33.905Z,4.37
2023-05-06T01:17:04.977Z,4.40
2023-05-06T01:19:46.809Z,5.57
2023-05-06T01:22:13.890Z,4.47
2023-05-06T01:24:42.381Z,4.87
2023-05-06T01:27:10.375Z,3.77
2023-05-06T01:29:39.743Z,4.50
2023-05-06T01:32:18.453Z,4.50
2023-05-06T01:35:18.232Z,4.53
2023-05-06T01:38:09.173Z,4.17
2023-05-06T01:40:36.837Z,4.30
2023-05-06T01:43:06.343Z,5.43
2023-05-06T01:45:35.777Z,4.43
2023-05-06T01:48:02.709Z,3.97
2023-05-06T01:50:30.514Z,4.23
2023-05-06T01:53:01.197Z,5.03
2023-05-06T01:55:27.867Z,4.33
2023-05-06T01:57:56.609Z,5.20
2023-05-06T02:00:25.350Z,4.73
2023-05-06T02:02:52.340Z,5.77
2023-05-06T02:05:19.007Z,4.07
2023-05-06T02:07:45.790Z,4.20
2023-05-06T02:10:12.476Z,4.73
2023-05-06T02:12:39.018Z,4.50
2023-05-06T02:15:06.350Z,4.57
2023-05-06T02:17:35.870Z,5.07
2023-05-06T02:20:02.457Z,5.00
2023-05-06T02:22:28.993Z,4.70
2023-05-06T02:24:55.554Z,4.90
2023-05-06T02:27:22.126Z,5.13
2023-05-06T02:29:48.740Z,5.07
2023-05-06T02:32:15.255Z,5.03
2023-05-06T02:34:41.827Z,5.80
2023-05-06T02:37:08.341Z,5.40
2023-05-06T02:39:35.012Z,5.00
2023-05-06T02:42:02.547Z,5.30
2023-05-06T02:44:29.328Z,4.80
2023-05-06T02:46:55.874Z,4.43
2023-05-06T02:49:22.529Z,5.63
2023-05-06T02:51:49.134Z,5.00
2023-05-06T02:54:15.721Z,5.77
2023-05-06T02:56:43.347Z,6.00
2023-05-06T02:59:09.982Z,5.33
2023-05-06T03:01:36.653Z,4.60
2023-05-06T03:04:03.760Z,4.63
2023-05-06T03:06:31.704Z,5.23
2023-05-06T03:08:58.320Z,5.00
2023-05-06T03:11:25.045Z,5.53
2023-05-06T03:13:51.726Z,6.10
2023-05-06T03:16:18.298Z,5.13
2023-05-06T03:18:44.876Z,5.07
2023-05-06T03:21:12.663Z,4.97
2023-05-06T03:23:39.282Z,4.87
2023-05-06T03:26:06.069Z,4.73
2023-05-06T03:28:32.706Z,5.83
2023-05-06T03:30:59.425Z,7.27
2023-05-06T03:33:26.017Z,6.17
2023-05-06T03:35:52.560Z,5.57
2023-05-06T03:38:19.183Z,5.23
2023-05-06T03:40:46.069Z,5.60
2023-05-06T03:43:12.628Z,5.60
2023-05-06T03:45:39.228Z,5.77
2023-05-06T03:48:06.412Z,5.43
2023-05-06T03:50:33.238Z,5.87
2023-05-06T03:53:00.089Z,6.37
2023-05-06T03:55:26.702Z,10.30
2023-05-06T03:57:53.238Z,4.93
2023-05-06T04:00:20.280Z,5.17
2023-05-06T04:02:46.903Z,5.87
2023-05-06T04:05:13.591Z,5.23
2023-05-06T04:07:40.417Z,4.93
2023-05-06T04:10:07.887Z,5.67
2023-05-06T04:12:34.755Z,5.80
2023-05-06T04:15:01.381Z,6.27
2023-05-06T04:17:27.980Z,5.80
2023-05-06T04:19:54.535Z,6.07
2023-05-06T04:22:21.235Z,5.87
2023-05-06T04:24:47.774Z,7.87
2023-05-06T04:27:15.335Z,5.77
2023-05-06T04:29:41.952Z,5.70
2023-05-06T04:32:11.724Z,5.27
2023-05-06T04:34:38.545Z,5.17
2023-05-06T04:37:05.718Z,6.63
2023-05-06T04:39:32.662Z,7.47
2023-05-06T04:41:59.299Z,5.73
2023-05-06T04:44:26.142Z,5.47
2023-05-06T04:46:52.653Z,6.07
2023-05-06T04:49:19.239Z,5.40
2023-05-06T04:51:45.864Z,6.10
2023-05-06T04:54:12.389Z,6.03
2023-05-06T04:56:39.061Z,6.03
2023-05-06T04:59:05.674Z,5.53
2023-05-06T05:01:32.206Z,5.93
2023-05-06T05:03:58.795Z,5.97
2023-05-06T05:06:25.383Z,7.63
2023-05-06T05:08:52.149Z,5.53
2023-05-06T05:11:19.036Z,5.80
2023-05-06T05:13:45.644Z,7.07
2023-05-06T05:16:12.269Z,6.07
2023-05-06T05:18:38.815Z,5.60
2023-05-06T05:21:05.452Z,6.07
2023-05-06T05:23:32.146Z,6.00
2023-05-06T05:25:58.685Z,5.40
2023-05-06T05:28:25.710Z,5.13
2023-05-06T05:30:52.425Z,5.97
2023-05-06T05:33:19.306Z,5.83
2023-05-06T05:35:45.961Z,4.73
2023-05-06T05:38:15.463Z,5.20
2023-05-06T05:40:42.227Z,5.10
2023-05-06T05:43:08.759Z,5.50
2023-05-06T05:45:35.700Z,5.70
2023-05-06T05:48:02.377Z,4.80
2023-05-06T05:50:29.074Z,6.63
2023-05-06T05:52:55.701Z,5.97
2023-05-06T05:55:22.280Z,5.13
2023-05-06T05:57:48.891Z,7.13
2023-05-06T06:00:15.934Z,4.90
2023-05-06T06:02:42.572Z,5.30
2023-05-06T06:05:09.439Z,4.70
2023-05-06T06:07:36.433Z,5.50
2023-05-06T06:10:04.494Z,5.10
2023-05-06T06:12:31.128Z,5.93
2023-05-06T06:14:57.792Z,6.13
2023-05-06T06:17:24.558Z,5.90
2023-05-06T06:19:51.357Z,6.57
2023-05-06T06:22:18.125Z,7.00
2023-05-06T06:24:44.864Z,6.63
2023-05-06T06:27:11.417Z,6.67
2023-05-06T06:29:38.164Z,6.40
2023-05-06T06:32:05.134Z,8.33
2023-05-06T06:34:32.000Z,6.67
2023-05-06T06:36:59.167Z,6.87
2023-05-06T06:39:25.762Z,6.70
2023-05-06T06:41:52.413Z,7.00
2023-05-06T06:44:19.016Z,6.63
2023-05-06T06:46:45.624Z,6.87
2023-05-06T06:49:12.206Z,6.77
2023-05-06T06:51:38.738Z,6.27
2023-05-06T06:54:05.393Z,6.07
2023-05-06T06:56:32.057Z,6.63
2023-05-06T06:58:58.683Z,6.37
2023-05-06T07:01:25.305Z,6.67
2023-05-06T07:03:51.991Z,6.77
2023-05-06T07:06:18.590Z,6.73
2023-05-06T07:08:45.171Z,6.60
2023-05-06T07:11:12.123Z,6.13
2023-05-06T07:13:38.661Z,5.50
2023-05-06T07:16:05.276Z,5.73
2023-05-06T07:18:31.850Z,5.40
2023-05-06T07:20:58.471Z,5.43
2023-05-06T07:23:25.135Z,5.70
2023-05-06T07:25:51.692Z,5.77
2023-05-06T07:28:18.260Z,6.23
2023-05-06T07:30:45.807Z,6.10
2023-05-06T07:33:12.493Z,6.13
2023-05-06T07:35:39.071Z,6.33
2023-05-06T07:38:05.597Z,5.63
2023-05-06T07:40:32.657Z,6.00
2023-05-06T07:42:59.251Z,6.17
2023-05-06T07:45:25.841Z,5.40
2023-05-06T07:47:52.714Z,6.23
2023-05-06T07:50:19.445Z,5.63
2023-05-06T07:52:46.078Z,6.30
2023-05-06T07:55:12.964Z,6.57
2023-05-06T07:57:39.641Z,5.53
2023-05-06T08:00:06.936Z,6.00
2023-05-06T08:02:33.739Z,5.30
2023-05-06T08:05:00.432Z,6.07
2023-05-06T08:07:26.967Z,5.37
2023-05-06T08:09:53.535Z,5.70
2023-05-06T08:12:20.059Z,7.40
2023-05-06T08:14:46.817Z,5.73
2023-05-06T08:17:13.524Z,5.80
2023-05-06T08:19:40.037Z,7.07
2023-05-06T08:22:06.584Z,5.37
2023-05-06T08:24:33.225Z,5.77
2023-05-06T08:26:59.785Z,7.27
2023-05-06T08:29:27.170Z,5.93
2023-05-06T08:31:53.952Z,5.20
2023-05-06T08:34:21.305Z,6.17
2023-05-06T08:36:48.822Z,3.80
2023-05-06T08:39:15.621Z,5.33
2023-05-06T08:41:52.359Z,5.17
2023-05-06T08:44:20.982Z,7.63
2023-05-06T08:46:47.897Z,5.03
2023-05-06T08:49:14.720Z,5.30
2023-05-06T08:51:43.895Z,5.63
2023-05-06T08:54:12.445Z,4.90
2023-05-06T08:56:42.574Z,4.60
2023-05-06T08:59:09.543Z,4.10
2023-05-06T09:01:36.877Z,5.10
2023-05-06T09:04:04.051Z,5.80
2023-05-06T09:06:30.615Z,4.23
2023-05-06T09:08:57.673Z,5.63
2023-05-06T09:11:29.722Z,3.70
2023-05-06T09:14:13.224Z,3.20
2023-05-06T09:16:42.636Z,4.10
2023-05-06T09:19:09.564Z,4.10
2023-05-06T09:21:38.403Z,4.73
2023-05-06T09:24:07.175Z,3.93
2023-05-06T09:26:35.635Z,4.30
2023-05-06T09:29:02.944Z,3.73
2023-05-06T09:31:29.906Z,4.63
2023-05-06T09:33:58.929Z,3.13
2023-05-06T09:36:27.594Z,4.90
2023-05-06T09:38:55.715Z,3.03
2023-05-06T09:41:25.256Z,3.30
2023-05-06T09:43:53.694Z,3.30
2023-05-06T09:46:24.679Z,3.07
2023-05-06T09:48:53.071Z,3.73
2023-05-06T09:51:20.394Z,3.57
2023-05-06T09:53:47.496Z,4.33
2023-05-06T09:56:15.814Z,3.03
2023-05-06T09:58:42.989Z,4.57
2023-05-06T10:01:19.120Z,4.60
2023-05-06T10:03:53.606Z,3.77
2023-05-06T10:06:22.997Z,3.50
2023-05-06T10:08:51.051Z,3.57
2023-05-06T10:11:19.102Z,2.90
2023-05-06T10:13:47.064Z,3.03
2023-05-06T10:16:15.940Z,3.47
2023-05-06T10:18:44.228Z,3.47
2023-05-06T10:21:24.915Z,3.90
2023-05-06T10:23:57.217Z,3.40
2023-05-06T10:26:27.500Z,2.75
2023-05-06T10:28:55.008Z,2.92
2023-05-06T10:31:21.630Z,2.67
2023-05-06T10:33:52.738Z,3.90
2023-05-06T10:36:21.632Z,3.75
2023-05-06T10:38:57.530Z,3.20
2023-05-06T10:41:28.070Z,3.97
2023-05-06T10:43:57.056Z,3.70
2023-05-06T10:46:26.197Z,3.17
2023-05-06T10:49:04.949Z,4.22
2023-05-06T10:51:35.365Z,2.78
2023-05-06T10:54:04.759Z,3.47
2023-05-06T10:56:32.425Z,3.28
2023-05-06T10:59:10.162Z,4.15
2023-05-06T11:01:44.189Z,3.00
2023-05-06T11:04:13.297Z,3.13
2023-05-06T11:06:46.708Z,2.75
2023-05-06T11:09:20.572Z,5.03
2023-05-06T11:12:02.725Z,3.08
2023-05-06T11:14:30.680Z,2.92
2023-05-06T11:17:01.793Z,3.15
2023-05-06T11:19:30.344Z,3.20
2023-05-06T11:21:58.950Z,2.90
2023-05-06T11:24:28.041Z,3.15
2023-05-06T11:26:56.592Z,3.22
2023-05-06T11:29:24.318Z,3.83
2023-05-06T11:31:52.895Z,3.08
2023-05-06T11:34:27.969Z,3.20
2023-05-06T11:37:06.423Z,3.03
2023-05-06T11:39:39.779Z,3.80
2023-05-06T11:42:08.562Z,2.85
2023-05-06T11:44:39.461Z,4.70
2023-05-06T11:47:08.216Z,4.18
2023-05-06T11:49:44.517Z,2.88
2023-05-06T11:52:12.760Z,3.00
2023-05-06T11:54:41.013Z,4.75
2023-05-06T11:57:07.685Z,4.70
2023-05-06T11:59:39.526Z,4.07
2023-05-06T12:02:12.849Z,2.95
2023-05-06T12:04:41.717Z,2.90
2023-05-06T12:07:13.320Z,3.00
2023-05-06T12:09:43.136Z,3.10
2023-05-06T12:12:11.942Z,2.92
2023-05-06T12:14:39.574Z,5.00
2023-05-06T12:17:06.530Z,3.33
2023-05-06T12:19:33.750Z,4.75
2023-05-06T12:22:24.753Z,3.50
2023-05-06T12:24:51.510Z,2.92
2023-05-06T12:27:31.652Z,3.30
2023-05-06T12:29:58.624Z,3.20
2023-05-06T12:32:25.322Z,3.88
2023-05-06T12:34:51.972Z,3.20
2023-05-06T12:37:27.155Z,3.30
2023-05-06T12:39:55.176Z,2.63
2023-05-06T12:42:24.358Z,3.55
2023-05-06T12:44:51.149Z,3.13
2023-05-06T12:47:21.070Z,4.68
2023-05-06T12:49:48.591Z,2.70
2023-05-06T12:52:18.770Z,3.55
2023-05-06T12:54:46.080Z,2.85
2023-05-06T12:57:12.733Z,5.53
2023-05-06T12:59:39.754Z,3.83
2023-05-06T13:02:06.714Z,2.78
2023-05-06T13:04:33.323Z,3.15
2023-05-06T13:07:00.011Z,2.95
2023-05-06T13:09:26.936Z,2.65
2023-05-06T13:11:53.910Z,2.85
2023-05-06T13:14:20.722Z,5.63
2023-05-06T13:16:47.911Z,2.83
2023-05-06T13:19:30.796Z,3.15
2023-05-06T13:22:00.523Z,4.28
2023-05-06T13:24:27.347Z,5.60
2023-05-06T13:26:54.730Z,2.80
2023-05-06T13:29:23.399Z,3.67
2023-05-06T13:31:49.953Z,3.25
2023-05-06T13:34:16.602Z,6.68
2023-05-06T13:36:44.389Z,3.47
2023-05-06T13:39:10.928Z,5.15
2023-05-06T13:41:37.522Z,3.92
2023-05-06T13:44:04.200Z,4.38
2023-05-06T13:46:31.393Z,2.90
2023-05-06T13:48:58.036Z,2.75
2023-05-06T13:51:27.507Z,3.20
2023-05-06T13:53:54.102Z,4.70
2023-05-06T13:56:21.512Z,3.30
2023-05-06T13:58:48.061Z,3.30
2023-05-06T14:01:15.098Z,4.10
2023-05-06T14:03:41.764Z,2.78
2023-05-06T14:06:08.705Z,3.35
2023-05-06T14:08:35.337Z,2.90
2023-05-06T14:11:01.893Z,3.97
2023-05-06T14:13:32.442Z,3.10
2023-05-06T14:15:59.782Z,2.78
2023-05-06T14:18:27.350Z,2.50
2023-05-06T14:20:54.409Z,3.17
2023-05-06T14:23:21.133Z,3.50
2023-05-06T14:25:47.786Z,3.03
2023-05-06T14:28:15.781Z,3.00
2023-05-06T14:30:42.728Z,3.03
2023-05-06T14:33:10.137Z,3.60
2023-05-06T14:35:40.712Z,3.85
2023-05-06T14:38:07.576Z,3.55
2023-05-06T14:40:36.037Z,5.95
2023-05-06T14:43:03.282Z,3.72
2023-05-06T14:45:30.059Z,3.95
2023-05-06T14:47:56.877Z,3.80
2023-05-06T14:50:23.622Z,4.00
2023-05-06T14:52:50.280Z,3.60
2023-05-06T14:55:17.730Z,4.40
2023-05-06T14:57:44.273Z,4.13
2023-05-06T15:00:12.777Z,3.58
2023-05-06T15:02:40.827Z,3.28
2023-05-06T15:05:10.514Z,4.15
2023-05-06T15:07:37.832Z,3.97
2023-05-06T15:10:05.019Z,4.78
2023-05-06T15:12:31.812Z,3.47
2023-05-06T15:14:58.471Z,3.17
2023-05-06T15:17:25.344Z,4.05
2023-05-06T15:19:51.987Z,3.30
2023-05-06T15:22:18.618Z,4.82
2023-05-06T15:24:45.550Z,3.13
2023-05-06T15:27:12.399Z,2.85
2023-05-06T15:29:41.690Z,4.03
2023-05-06T15:32:08.450Z,3.72
2023-05-06T15:34:35.197Z,3.08
2023-05-06T15:37:02.152Z,3.47
2023-05-06T15:39:29.126Z,2.88
2023-05-06T15:41:59.254Z,2.63
2023-05-06T15:44:27.142Z,2.72
2023-05-06T15:46:53.818Z,4.55
2023-05-06T15:49:48.861Z,3.80
2023-05-06T15:52:07.062Z,4.20
2023-05-06T15:54:37.527Z,2.83
2023-05-06T15:57:07.476Z,2.95
2023-05-06T15:59:34.194Z,2.40
2023-05-06T16:02:26.279Z,2.85
2023-05-06T16:04:47.578Z,3.70
2023-05-06T16:07:14.461Z,3.60
2023-05-06T16:09:41.312Z,4.07
2023-05-06T16:12:07.966Z,3.85
2023-05-06T16:14:34.513Z,4.35
2023-05-06T16:17:01.698Z,4.47
2023-05-06T16:19:30.492Z,4.55
2023-05-06T16:21:57.084Z,2.70
2023-05-06T16:24:23.649Z,3.10
2023-05-06T16:26:50.185Z,2.70
2023-05-06T16:29:19.166Z,2.97
2023-05-06T16:31:46.029Z,2.95
2023-05-06T16:34:13.090Z,3.00
2023-05-06T16:36:39.595Z,3.78
2023-05-06T16:39:07.791Z,3.78
2023-05-06T16:41:34.571Z,3.30
2023-05-06T16:44:01.672Z,3.75
2023-05-06T16:46:29.007Z,6.22
2023-05-06T16:48:55.947Z,2.80
2023-05-06T16:51:25.152Z,3.83
2023-05-06T16:53:51.709Z,3.03
2023-05-06T16:56:18.279Z,3.58
2023-05-06T16:58:44.850Z,2.92
2023-05-06T17:01:11.835Z,4.22
2023-05-06T17:03:38.641Z,3.45
2023-05-06T17:06:05.728Z,2.92
2023-05-06T17:08:36.141Z,3.35
2023-05-06T17:11:06.506Z,2.90
2023-05-06T17:13:33.497Z,4.90
2023-05-06T17:16:00.211Z,3.70
2023-05-06T17:18:26.764Z,3.40
2023-05-06T17:20:56.765Z,5.95
2023-05-06T17:23:23.853Z,3.00
2023-05-06T17:25:51.233Z,3.60
2023-05-06T17:28:18.880Z,3.58
2023-05-06T17:30:46.288Z,3.05
2023-05-06T17:33:13.002Z,2.72
2023-05-06T17:35:39.656Z,2.92
2023-05-06T17:38:06.519Z,2.90
2023-05-06T17:40:33.262Z,2.85
2023-05-06T17:43:00.229Z,6.75
2023-05-06T17:45:28.526Z,2.50
2023-05-06T17:47:56.482Z,2.92
2023-05-06T17:50:23.635Z,3.15
2023-05-06T17:52:52.351Z,3.10
2023-05-06T17:55:21.507Z,5.50
2023-05-06T17:57:49.008Z,3.17
2023-05-06T18:00:17.044Z,2.88
2023-05-06T18:02:44.325Z,3.58
2023-05-06T18:05:11.682Z,2.83
2023-05-06T18:07:38.621Z,3.50
2023-05-06T18:10:06.039Z,3.72
2023-05-06T18:12:32.700Z,4.90
2023-05-06T18:15:00.423Z,3.43
2023-05-06T18:17:27.010Z,3.70
2023-05-06T18:19:53.738Z,2.97
2023-05-06T18:22:20.337Z,5.83
2023-05-06T18:24:47.091Z,3.53
2023-05-06T18:27:13.697Z,3.73
2023-05-06T18:29:41.313Z,3.63
2023-05-06T18:32:08.194Z,3.70
2023-05-06T18:34:34.960Z,3.67
2023-05-06T18:37:01.594Z,2.97
2023-05-06T18:39:28.227Z,3.77
2023-05-06T18:41:54.865Z,4.13
2023-05-06T18:44:21.753Z,3.83
2023-05-06T18:46:48.385Z,4.43
2023-05-06T18:49:15.315Z,4.50
2023-05-06T18:51:41.994Z,3.70
2023-05-06T18:54:08.681Z,3.17
2023-05-06T18:56:36.628Z,5.07
2023-05-06T18:59:03.273Z,4.33
2023-05-06T19:01:30.125Z,3.97
2023-05-06T19:03:56.911Z,5.77
2023-05-06T19:06:23.665Z,6.93
2023-05-06T19:08:50.545Z,11.13
2023-05-06T19:11:21.249Z,8.37
2023-05-06T19:13:47.930Z,14.23
2023-05-06T19:16:14.548Z,14.23
2023-05-06T19:18:41.345Z,18.30
2023-05-06T19:21:12.198Z,17.00
2023-05-06T19:23:38.974Z,11.07
2023-05-06T19:26:06.795Z,5.03
2023-05-06T19:28:34.261Z,8.90
2023-05-06T19:31:01.161Z,6.00
2023-05-06T19:33:27.813Z,6.10
2023-05-06T19:35:54.681Z,4.10
2023-05-06T19:38:21.354Z,5.43
2023-05-06T19:40:47.970Z,4.10
2023-05-06T19:43:14.669Z,4.47
2023-05-06T19:45:41.983Z,4.13
2023-05-06T19:48:08.785Z,4.97
2023-05-06T19:50:35.514Z,5.97
2023-05-06T19:53:03.533Z,3.90
2023-05-06T19:55:30.849Z,4.43
2023-05-06T19:57:58.049Z,3.50
2023-05-06T20:00:27.458Z,4.17
2023-05-06T20:02:56.438Z,4.33
2023-05-06T20:05:23.441Z,4.60
2023-05-06T20:07:50.764Z,8.70
2023-05-06T20:10:17.409Z,11.93
2023-05-06T20:12:44.174Z,4.60
2023-05-06T20:15:10.911Z,5.97
2023-05-06T20:17:37.788Z,12.80
2023-05-06T20:20:09.752Z,7.53
2023-05-06T20:22:40.392Z,4.87
2023-05-06T20:25:12.435Z,5.93
2023-05-06T20:27:39.392Z,5.20
2023-05-06T20:30:09.522Z,5.33
2023-05-06T20:32:37.469Z,6.90
2023-05-06T20:35:05.102Z,4.60
2023-05-06T20:37:33.810Z,4.57
2023-05-06T20:40:00.487Z,5.93
2023-05-06T20:42:27.057Z,4.40
2023-05-06T20:44:53.729Z,4.20
2023-05-06T20:47:20.367Z,3.87
2023-05-06T20:49:46.923Z,5.53
2023-05-06T20:52:14.712Z,4.10
2023-05-06T20:54:42.745Z,5.47
2023-05-06T20:57:10.051Z,5.33
2023-05-06T20:59:36.946Z,4.87
2023-05-06T21:02:04.028Z,3.97
2023-05-06T21:04:31.016Z,4.40
2023-05-06T21:06:57.596Z,3.77
2023-05-06T21:09:24.995Z,5.00
2023-05-06T21:11:51.540Z,3.70
2023-05-06T21:14:18.859Z,3.67
2023-05-06T21:16:45.612Z,4.23
2023-05-06T21:19:12.144Z,4.37
2023-05-06T21:21:38.724Z,4.23
2023-05-06T21:24:05.613Z,4.20
2023-05-06T21:26:32.685Z,4.27
2023-05-06T21:28:59.348Z,3.90
2023-05-06T21:31:26.897Z,5.10
2023-05-06T21:33:58.565Z,4.77
2023-05-06T21:36:25.340Z,3.87
2023-05-06T21:39:06.919Z,4.27
2023-05-06T21:41:35.656Z,4.07
2023-05-06T21:44:06.291Z,4.37
2023-05-06T21:46:33.297Z,4.20
2023-05-06T21:49:00.728Z,4.57
2023-05-06T21:51:28.747Z,5.53
2023-05-06T21:53:55.341Z,4.43
2023-05-06T21:56:22.348Z,4.17
2023-05-06T21:58:49.104Z,4.30
2023-05-06T22:01:15.989Z,5.13
2023-05-06T22:03:43.487Z,5.60
2023-05-06T22:06:10.253Z,4.33
2023-05-06T22:08:36.888Z,4.43
2023-05-06T22:11:03.529Z,5.77
2023-05-06T22:13:30.309Z,6.23
2023-05-06T22:15:57.119Z,5.47
2023-05-06T22:18:23.980Z,4.63
2023-05-06T22:20:52.500Z,4.90
2023-05-06T22:23:23.816Z,4.43
2023-05-06T22:25:52.137Z,5.83
2023-05-06T22:28:19.418Z,4.77
2023-05-06T22:30:46.067Z,5.10
2023-05-06T22:33:12.736Z,4.50
2023-05-06T22:35:39.375Z,4.97
2023-05-06T22:38:05.996Z,5.00
2023-05-06T22:40:32.493Z,5.10
2023-05-06T22:42:59.037Z,7.07
2023-05-06T22:45:25.751Z,5.37
2023-05-06T22:47:52.364Z,5.90
2023-05-06T22:50:19.084Z,5.60
2023-05-06T22:52:46.108Z,4.87
2023-05-06T22:55:13.036Z,5.23
2023-05-06T22:57:39.742Z,4.47
2023-05-06T23:00:08.234Z,5.70
2023-05-06T23:02:34.846Z,5.20
2023-05-06T23:05:01.439Z,3.90
2023-05-06T23:07:28.005Z,3.93
2023-05-06T23:09:54.700Z,3.90
2023-05-06T23:12:21.426Z,4.20
2023-05-06T23:14:48.068Z,4.63
2023-05-06T23:17:14.733Z,4.30
2023-05-06T23:19:41.240Z,4.10
2023-05-06T23:22:07.859Z,4.00
2023-05-06T23:24:34.667Z,5.30
2023-05-06T23:27:01.462Z,5.37
2023-05-06T23:29:28.263Z,4.30
2023-05-06T23:31:54.828Z,4.27
2023-05-06T23:34:21.354Z,4.00
2023-05-06T23:36:47.988Z,4.63
2023-05-06T23:39:14.545Z,4.43
2023-05-06T23:41:41.051Z,5.17
2023-05-06T23:44:07.792Z,4.77
2023-05-06T23:46:34.397Z,4.33
2023-05-06T23:49:01.071Z,4.83
2023-05-06T23:51:27.707Z,4.10
2023-05-06T23:53:54.242Z,4.20
2023-05-06T23:56:21.719Z,3.80
2023-05-06T23:58:48.326Z,4.30
